sensor_id;sensor_type;location;lat;lon;timestamp;P1;durP1;ratioP1;P2;durP2;ratioP2
2173;SDS011;1093;51.424;11.764;2023-01-09T00:00:50;10.87;;;9.00;;
2173;SDS011;1093;51.424;11.764;2023-01-09T00:03:18;12.80;;;9.10;;
2173;SDS011;1093;51.424;11.764;2023-01-09T00:05:44;14.00;;;10.43;;
2173;SDS011;1093;51.424;11.764;2023-01-09T00:08:13;15.67;;;9.73;;
2173;SDS011;1093;51.424;11.764;2023-01-09T00:10:40;14.40;;;11.43;;
2173;SDS011;1093;51.424;11.764;2023-01-09T00:13:08;12.83;;;10.03;;
2173;SDS011;1093;51.424;11.764;2023-01-09T00:15:36;13.33;;;9.57;;
2173;SDS011;1093;51.424;11.764;2023-01-09T00:18:05;14.07;;;10.40;;
2173;SDS011;1093;51.424;11.764;2023-01-09T00:20:31;17.00;;;11.87;;
2173;SDS011;1093;51.424;11.764;2023-01-09T00:22:58;12.90;;;10.30;;
2173;SDS011;1093;51.424;11.764;2023-01-09T00:25:24;14.43;;;10.40;;
2173;SDS011;1093;51.424;11.764;2023-01-09T00:27:51;14.83;;;10.17;;
2173;SDS011;1093;51.424;11.764;2023-01-09T00:30:18;13.47;;;10.90;;
2173;SDS011;1093;51.424;11.764;2023-01-09T00:32:45;15.37;;;11.33;;
2173;SDS011;1093;51.424;11.764;2023-01-09T00:35:14;15.57;;;10.77;;
2173;SDS011;1093;51.424;11.764;2023-01-09T00:37:42;13.40;;;10.60;;
2173;SDS011;1093;51.424;11.764;2023-01-09T00:40:09;16.30;;;11.73;;
2173;SDS011;1093;51.424;11.764;2023-01-09T00:42:38;21.10;;;12.40;;
2173;SDS011;1093;51.424;11.764;2023-01-09T00:45:06;17.80;;;10.77;;
2173;SDS011;1093;51.424;11.764;2023-01-09T00:47:39;14.80;;;11.57;;
2173;SDS011;1093;51.424;11.764;2023-01-09T00:50:11;20.30;;;11.87;;
2173;SDS011;1093;51.424;11.764;2023-01-09T00:52:41;13.33;;;10.77;;
2173;SDS011;1093;51.424;11.764;2023-01-09T00:55:09;13.87;;;10.30;;
2173;SDS011;1093;51.424;11.764;2023-01-09T00:57:36;14.27;;;10.60;;
2173;SDS011;1093;51.424;11.764;2023-01-09T01:00:03;15.97;;;10.13;;
2173;SDS011;1093;51.424;11.764;2023-01-09T01:02:31;14.63;;;10.70;;
2173;SDS011;1093;51.424;11.764;2023-01-09T01:04:58;13.67;;;11.50;;
2173;SDS011;1093;51.424;11.764;2023-01-09T01:07:43;15.63;;;11.27;;
2173;SDS011;1093;51.424;11.764;2023-01-09T01:10:11;15.83;;;11.50;;
2173;SDS011;1093;51.424;11.764;2023-01-09T01:12:40;13.17;;;10.27;;
2173;SDS011;1093;51.424;11.764;2023-01-09T01:15:08;12.57;;;9.70;;
2173;SDS011;1093;51.424;11.764;2023-01-09T01:17:37;16.90;;;11.53;;
2173;SDS011;1093;51.424;11.764;2023-01-09T01:20:06;16.93;;;12.17;;
2173;SDS011;1093;51.424;11.764;2023-01-09T01:22:34;14.90;;;11.43;;
2173;SDS011;1093;51.424;11.764;2023-01-09T01:25:03;17.13;;;12.50;;
2173;SDS011;1093;51.424;11.764;2023-01-09T01:27:30;16.10;;;11.77;;
2173;SDS011;1093;51.424;11.764;2023-01-09T01:29:57;17.13;;;12.10;;
2173;SDS011;1093;51.424;11.764;2023-01-09T01:32:24;16.10;;;11.67;;
2173;SDS011;1093;51.424;11.764;2023-01-09T01:34:51;15.73;;;11.63;;
2173;SDS011;1093;51.424;11.764;2023-01-09T01:37:17;18.30;;;11.67;;
2173;SDS011;1093;51.424;11.764;2023-01-09T01:39:46;15.80;;;10.37;;
2173;SDS011;1093;51.424;11.764;2023-01-09T01:42:14;14.77;;;11.50;;
2173;SDS011;1093;51.424;11.764;2023-01-09T01:44:55;19.40;;;13.50;;
2173;SDS011;1093;51.424;11.764;2023-01-09T01:47:28;17.53;;;12.57;;
2173;SDS011;1093;51.424;11.764;2023-01-09T01:49:58;15.30;;;12.20;;
2173;SDS011;1093;51.424;11.764;2023-01-09T01:52:27;16.27;;;11.70;;
2173;SDS011;1093;51.424;11.764;2023-01-09T01:54:57;15.70;;;11.20;;
2173;SDS011;1093;51.424;11.764;2023-01-09T01:57:25;13.80;;;11.50;;
2173;SDS011;1093;51.424;11.764;2023-01-09T01:59:52;15.37;;;11.77;;
2173;SDS011;1093;51.424;11.764;2023-01-09T02:02:24;15.07;;;11.27;;
2173;SDS011;1093;51.424;11.764;2023-01-09T02:04:54;16.37;;;11.53;;
2173;SDS011;1093;51.424;11.764;2023-01-09T02:07:22;17.30;;;11.30;;
2173;SDS011;1093;51.424;11.764;2023-01-09T02:09:49;17.27;;;11.20;;
2173;SDS011;1093;51.424;11.764;2023-01-09T02:12:17;15.80;;;12.40;;
2173;SDS011;1093;51.424;11.764;2023-01-09T02:14:49;16.50;;;11.90;;
2173;SDS011;1093;51.424;11.764;2023-01-09T02:17:23;15.43;;;10.77;;
2173;SDS011;1093;51.424;11.764;2023-01-09T02:23:21;15.60;;;11.00;;
2173;SDS011;1093;51.424;11.764;2023-01-09T02:29:30;16.67;;;10.43;;
2173;SDS011;1093;51.424;11.764;2023-01-09T02:32:31;15.20;;;11.57;;
2173;SDS011;1093;51.424;11.764;2023-01-09T02:35:06;17.53;;;11.70;;
2173;SDS011;1093;51.424;11.764;2023-01-09T02:37:44;14.87;;;11.30;;
2173;SDS011;1093;51.424;11.764;2023-01-09T02:40:18;16.73;;;11.60;;
2173;SDS011;1093;51.424;11.764;2023-01-09T02:42:49;13.97;;;10.60;;
2173;SDS011;1093;51.424;11.764;2023-01-09T02:45:19;17.27;;;12.20;;
2173;SDS011;1093;51.424;11.764;2023-01-09T02:47:47;12.10;;;10.67;;
2173;SDS011;1093;51.424;11.764;2023-01-09T02:50:15;15.17;;;10.40;;
2173;SDS011;1093;51.424;11.764;2023-01-09T02:52:58;13.37;;;10.27;;
2173;SDS011;1093;51.424;11.764;2023-01-09T02:55:43;16.07;;;11.00;;
2173;SDS011;1093;51.424;11.764;2023-01-09T02:58:18;17.87;;;10.40;;
2173;SDS011;1093;51.424;11.764;2023-01-09T03:00:59;14.20;;;10.70;;
2173;SDS011;1093;51.424;11.764;2023-01-09T03:03:34;16.27;;;10.10;;
2173;SDS011;1093;51.424;11.764;2023-01-09T03:06:14;13.97;;;10.17;;
2173;SDS011;1093;51.424;11.764;2023-01-09T03:08:49;17.33;;;12.17;;
2173;SDS011;1093;51.424;11.764;2023-01-09T03:11:19;13.90;;;9.07;;
2173;SDS011;1093;51.424;11.764;2023-01-09T03:13:48;18.60;;;10.40;;
2173;SDS011;1093;51.424;11.764;2023-01-09T03:16:22;15.70;;;10.57;;
2173;SDS011;1093;51.424;11.764;2023-01-09T03:18:53;15.73;;;10.27;;
2173;SDS011;1093;51.424;11.764;2023-01-09T03:21:22;17.70;;;11.80;;
2173;SDS011;1093;51.424;11.764;2023-01-09T03:23:52;16.97;;;11.20;;
2173;SDS011;1093;51.424;11.764;2023-01-09T03:26:19;19.13;;;10.67;;
2173;SDS011;1093;51.424;11.764;2023-01-09T03:28:47;14.60;;;9.57;;
2173;SDS011;1093;51.424;11.764;2023-01-09T03:31:14;14.10;;;10.13;;
2173;SDS011;1093;51.424;11.764;2023-01-09T03:33:41;17.20;;;10.13;;
2173;SDS011;1093;51.424;11.764;2023-01-09T03:36:10;13.00;;;11.43;;
2173;SDS011;1093;51.424;11.764;2023-01-09T03:38:38;14.40;;;10.97;;
2173;SDS011;1093;51.424;11.764;2023-01-09T03:41:06;14.43;;;10.20;;
2173;SDS011;1093;51.424;11.764;2023-01-09T03:43:33;15.60;;;10.87;;
2173;SDS011;1093;51.424;11.764;2023-01-09T03:46:00;15.10;;;10.43;;
2173;SDS011;1093;51.424;11.764;2023-01-09T03:48:27;16.00;;;11.37;;
2173;SDS011;1093;51.424;11.764;2023-01-09T03:50:54;16.40;;;10.20;;
2173;SDS011;1093;51.424;11.764;2023-01-09T03:53:23;16.80;;;9.50;;
2173;SDS011;1093;51.424;11.764;2023-01-09T03:55:51;19.43;;;11.30;;
2173;SDS011;1093;51.424;11.764;2023-01-09T03:58:20;14.20;;;9.53;;
2173;SDS011;1093;51.424;11.764;2023-01-09T04:00:48;19.30;;;10.50;;
2173;SDS011;1093;51.424;11.764;2023-01-09T04:03:16;18.40;;;12.10;;
2173;SDS011;1093;51.424;11.764;2023-01-09T04:05:47;18.90;;;12.60;;
2173;SDS011;1093;51.424;11.764;2023-01-09T04:08:14;19.60;;;13.13;;
2173;SDS011;1093;51.424;11.764;2023-01-09T04:10:44;20.00;;;12.13;;
2173;SDS011;1093;51.424;11.764;2023-01-09T04:13:11;19.70;;;11.83;;
2173;SDS011;1093;51.424;11.764;2023-01-09T04:15:38;21.17;;;13.80;;
2173;SDS011;1093;51.424;11.764;2023-01-09T04:18:06;23.87;;;11.63;;
2173;SDS011;1093;51.424;11.764;2023-01-09T04:20:33;19.03;;;10.93;;
2173;SDS011;1093;51.424;11.764;2023-01-09T04:23:00;25.10;;;13.70;;
2173;SDS011;1093;51.424;11.764;2023-01-09T04:25:27;22.77;;;13.43;;
2173;SDS011;1093;51.424;11.764;2023-01-09T04:27:55;20.30;;;13.30;;
2173;SDS011;1093;51.424;11.764;2023-01-09T04:30:23;17.90;;;12.63;;
2173;SDS011;1093;51.424;11.764;2023-01-09T04:32:50;19.50;;;11.13;;
2173;SDS011;1093;51.424;11.764;2023-01-09T04:35:17;13.43;;;10.13;;
2173;SDS011;1093;51.424;11.764;2023-01-09T04:37:43;19.43;;;12.70;;
2173;SDS011;1093;51.424;11.764;2023-01-09T04:40:10;18.20;;;11.00;;
2173;SDS011;1093;51.424;11.764;2023-01-09T04:42:38;15.67;;;11.27;;
2173;SDS011;1093;51.424;11.764;2023-01-09T04:45:08;16.97;;;12.37;;
2173;SDS011;1093;51.424;11.764;2023-01-09T04:47:39;22.67;;;13.37;;
2173;SDS011;1093;51.424;11.764;2023-01-09T04:50:06;29.70;;;15.97;;
2173;SDS011;1093;51.424;11.764;2023-01-09T04:52:34;29.30;;;17.90;;
2173;SDS011;1093;51.424;11.764;2023-01-09T04:55:01;28.70;;;17.13;;
2173;SDS011;1093;51.424;11.764;2023-01-09T04:57:29;23.33;;;15.33;;
2173;SDS011;1093;51.424;11.764;2023-01-09T04:59:55;21.73;;;15.80;;
2173;SDS011;1093;51.424;11.764;2023-01-09T05:02:23;19.50;;;13.10;;
2173;SDS011;1093;51.424;11.764;2023-01-09T05:04:50;21.23;;;12.30;;
2173;SDS011;1093;51.424;11.764;2023-01-09T05:07:17;20.20;;;12.60;;
2173;SDS011;1093;51.424;11.764;2023-01-09T05:09:43;20.03;;;12.40;;
2173;SDS011;1093;51.424;11.764;2023-01-09T05:12:10;22.20;;;15.50;;
2173;SDS011;1093;51.424;11.764;2023-01-09T05:14:37;23.37;;;14.80;;
2173;SDS011;1093;51.424;11.764;2023-01-09T05:17:03;22.50;;;14.80;;
2173;SDS011;1093;51.424;11.764;2023-01-09T05:19:31;20.07;;;14.13;;
2173;SDS011;1093;51.424;11.764;2023-01-09T05:21:58;22.30;;;15.90;;
2173;SDS011;1093;51.424;11.764;2023-01-09T05:24:25;21.30;;;15.30;;
2173;SDS011;1093;51.424;11.764;2023-01-09T05:26:51;22.60;;;15.53;;
2173;SDS011;1093;51.424;11.764;2023-01-09T05:29:18;20.60;;;14.07;;
2173;SDS011;1093;51.424;11.764;2023-01-09T05:31:45;30.07;;;16.40;;
2173;SDS011;1093;51.424;11.764;2023-01-09T05:34:11;21.83;;;15.40;;
2173;SDS011;1093;51.424;11.764;2023-01-09T05:36:40;23.27;;;13.60;;
2173;SDS011;1093;51.424;11.764;2023-01-09T05:39:06;23.90;;;15.00;;
2173;SDS011;1093;51.424;11.764;2023-01-09T05:41:33;24.70;;;16.07;;
2173;SDS011;1093;51.424;11.764;2023-01-09T05:43:59;24.37;;;15.50;;
2173;SDS011;1093;51.424;11.764;2023-01-09T05:46:26;20.50;;;14.40;;
2173;SDS011;1093;51.424;11.764;2023-01-09T05:48:53;29.03;;;15.67;;
2173;SDS011;1093;51.424;11.764;2023-01-09T05:51:20;24.70;;;15.83;;
2173;SDS011;1093;51.424;11.764;2023-01-09T05:53:48;26.20;;;15.17;;
2173;SDS011;1093;51.424;11.764;2023-01-09T05:56:15;21.10;;;16.33;;
2173;SDS011;1093;51.424;11.764;2023-01-09T05:58:41;22.93;;;13.50;;
2173;SDS011;1093;51.424;11.764;2023-01-09T06:01:08;28.03;;;14.07;;
2173;SDS011;1093;51.424;11.764;2023-01-09T06:03:36;22.60;;;13.50;;
2173;SDS011;1093;51.424;11.764;2023-01-09T06:06:03;15.63;;;12.07;;
2173;SDS011;1093;51.424;11.764;2023-01-09T06:08:30;22.53;;;12.30;;
2173;SDS011;1093;51.424;11.764;2023-01-09T06:10:58;20.77;;;14.00;;
2173;SDS011;1093;51.424;11.764;2023-01-09T06:13:24;19.40;;;13.10;;
2173;SDS011;1093;51.424;11.764;2023-01-09T06:15:51;15.30;;;11.80;;
2173;SDS011;1093;51.424;11.764;2023-01-09T06:18:18;16.50;;;11.33;;
2173;SDS011;1093;51.424;11.764;2023-01-09T06:20:45;15.60;;;10.00;;
2173;SDS011;1093;51.424;11.764;2023-01-09T06:23:11;13.50;;;9.27;;
2173;SDS011;1093;51.424;11.764;2023-01-09T06:25:38;12.03;;;9.40;;
2173;SDS011;1093;51.424;11.764;2023-01-09T06:28:06;12.90;;;9.37;;
2173;SDS011;1093;51.424;11.764;2023-01-09T06:30:34;14.43;;;9.43;;
2173;SDS011;1093;51.424;11.764;2023-01-09T06:33:01;12.93;;;9.27;;
2173;SDS011;1093;51.424;11.764;2023-01-09T06:35:28;11.30;;;8.90;;
2173;SDS011;1093;51.424;11.764;2023-01-09T06:37:55;14.70;;;9.63;;
2173;SDS011;1093;51.424;11.764;2023-01-09T06:40:25;13.67;;;7.87;;
2173;SDS011;1093;51.424;11.764;2023-01-09T06:42:52;20.00;;;9.33;;
2173;SDS011;1093;51.424;11.764;2023-01-09T06:45:20;13.47;;;8.90;;
2173;SDS011;1093;51.424;11.764;2023-01-09T06:47:46;13.13;;;9.00;;
2173;SDS011;1093;51.424;11.764;2023-01-09T06:50:14;10.23;;;7.53;;
2173;SDS011;1093;51.424;11.764;2023-01-09T06:52:41;13.47;;;8.47;;
2173;SDS011;1093;51.424;11.764;2023-01-09T06:55:08;13.47;;;8.87;;
2173;SDS011;1093;51.424;11.764;2023-01-09T06:57:34;15.50;;;8.73;;
2173;SDS011;1093;51.424;11.764;2023-01-09T07:00:01;9.77;;;7.53;;
2173;SDS011;1093;51.424;11.764;2023-01-09T07:02:30;9.60;;;7.70;;
2173;SDS011;1093;51.424;11.764;2023-01-09T07:04:57;9.73;;;7.20;;
2173;SDS011;1093;51.424;11.764;2023-01-09T07:07:24;10.97;;;7.70;;
2173;SDS011;1093;51.424;11.764;2023-01-09T07:09:50;10.20;;;7.60;;
2173;SDS011;1093;51.424;11.764;2023-01-09T07:12:17;10.50;;;7.47;;
2173;SDS011;1093;51.424;11.764;2023-01-09T07:14:44;9.70;;;7.03;;
2173;SDS011;1093;51.424;11.764;2023-01-09T07:17:11;8.73;;;7.10;;
2173;SDS011;1093;51.424;11.764;2023-01-09T07:19:39;9.10;;;7.23;;
2173;SDS011;1093;51.424;11.764;2023-01-09T07:22:06;6.13;;;5.13;;
2173;SDS011;1093;51.424;11.764;2023-01-09T07:24:33;5.07;;;3.67;;
2173;SDS011;1093;51.424;11.764;2023-01-09T07:27:00;3.40;;;3.10;;
2173;SDS011;1093;51.424;11.764;2023-01-09T07:29:26;4.30;;;3.33;;
2173;SDS011;1093;51.424;11.764;2023-01-09T07:31:53;4.13;;;3.80;;
2173;SDS011;1093;51.424;11.764;2023-01-09T07:34:20;3.50;;;3.20;;
2173;SDS011;1093;51.424;11.764;2023-01-09T07:36:48;4.30;;;3.33;;
2173;SDS011;1093;51.424;11.764;2023-01-09T07:39:15;5.37;;;3.10;;
2173;SDS011;1093;51.424;11.764;2023-01-09T07:41:42;4.17;;;3.37;;
2173;SDS011;1093;51.424;11.764;2023-01-09T07:44:09;4.30;;;3.90;;
2173;SDS011;1093;51.424;11.764;2023-01-09T07:46:35;4.40;;;3.10;;
2173;SDS011;1093;51.424;11.764;2023-01-09T07:49:02;4.60;;;4.20;;
2173;SDS011;1093;51.424;11.764;2023-01-09T07:51:29;5.00;;;3.50;;
2173;SDS011;1093;51.424;11.764;2023-01-09T07:53:57;4.80;;;3.80;;
2173;SDS011;1093;51.424;11.764;2023-01-09T07:56:24;4.77;;;3.83;;
2173;SDS011;1093;51.424;11.764;2023-01-09T07:58:50;5.97;;;3.80;;
2173;SDS011;1093;51.424;11.764;2023-01-09T08:01:17;3.70;;;3.40;;
2173;SDS011;1093;51.424;11.764;2023-01-09T08:03:44;4.23;;;3.73;;
2173;SDS011;1093;51.424;11.764;2023-01-09T08:06:10;4.10;;;3.70;;
2173;SDS011;1093;51.424;11.764;2023-01-09T08:08:37;4.83;;;4.33;;
2173;SDS011;1093;51.424;11.764;2023-01-09T08:11:05;7.00;;;5.03;;
2173;SDS011;1093;51.424;11.764;2023-01-09T08:13:32;5.30;;;4.50;;
2173;SDS011;1093;51.424;11.764;2023-01-09T08:15:58;8.10;;;6.00;;
2173;SDS011;1093;51.424;11.764;2023-01-09T08:18:25;5.70;;;5.10;;
2173;SDS011;1093;51.424;11.764;2023-01-09T08:20:52;7.57;;;5.03;;
2173;SDS011;1093;51.424;11.764;2023-01-09T08:23:20;6.80;;;4.77;;
2173;SDS011;1093;51.424;11.764;2023-01-09T08:25:47;6.47;;;4.83;;
2173;SDS011;1093;51.424;11.764;2023-01-09T08:28:14;6.10;;;5.50;;
2173;SDS011;1093;51.424;11.764;2023-01-09T08:30:42;5.27;;;4.30;;
2173;SDS011;1093;51.424;11.764;2023-01-09T08:33:08;5.50;;;4.50;;
2173;SDS011;1093;51.424;11.764;2023-01-09T08:35:35;5.27;;;4.73;;
2173;SDS011;1093;51.424;11.764;2023-01-09T08:38:02;5.80;;;4.20;;
2173;SDS011;1093;51.424;11.764;2023-01-09T08:40:29;6.67;;;3.60;;
2173;SDS011;1093;51.424;11.764;2023-01-09T08:42:56;4.73;;;3.27;;
2173;SDS011;1093;51.424;11.764;2023-01-09T08:45:42;3.83;;;3.43;;
2173;SDS011;1093;51.424;11.764;2023-01-09T08:48:40;3.23;;;2.90;;
2173;SDS011;1093;51.424;11.764;2023-01-09T08:51:07;3.43;;;2.90;;
2173;SDS011;1093;51.424;11.764;2023-01-09T08:53:34;3.13;;;2.77;;
2173;SDS011;1093;51.424;11.764;2023-01-09T08:56:01;3.13;;;2.80;;
2173;SDS011;1093;51.424;11.764;2023-01-09T08:58:28;2.77;;;2.30;;
2173;SDS011;1093;51.424;11.764;2023-01-09T09:00:56;2.30;;;2.10;;
2173;SDS011;1093;51.424;11.764;2023-01-09T09:03:23;3.07;;;2.57;;
2173;SDS011;1093;51.424;11.764;2023-01-09T09:05:50;2.43;;;2.00;;
2173;SDS011;1093;51.424;11.764;2023-01-09T09:08:17;3.67;;;1.93;;
2173;SDS011;1093;51.424;11.764;2023-01-09T09:10:44;1.80;;;1.63;;
2173;SDS011;1093;51.424;11.764;2023-01-09T09:13:10;2.10;;;1.90;;
2173;SDS011;1093;51.424;11.764;2023-01-09T09:15:37;1.70;;;1.60;;
2173;SDS011;1093;51.424;11.764;2023-01-09T09:18:05;1.73;;;1.50;;
2173;SDS011;1093;51.424;11.764;2023-01-09T09:20:34;2.03;;;1.43;;
2173;SDS011;1093;51.424;11.764;2023-01-09T09:23:01;1.97;;;1.40;;
2173;SDS011;1093;51.424;11.764;2023-01-09T09:25:29;1.93;;;1.57;;
2173;SDS011;1093;51.424;11.764;2023-01-09T09:27:56;3.90;;;1.40;;
2173;SDS011;1093;51.424;11.764;2023-01-09T09:30:25;1.50;;;1.40;;
2173;SDS011;1093;51.424;11.764;2023-01-09T09:32:52;1.63;;;1.53;;
2173;SDS011;1093;51.424;11.764;2023-01-09T09:35:20;1.50;;;1.37;;
2173;SDS011;1093;51.424;11.764;2023-01-09T09:37:51;1.10;;;1.00;;
2173;SDS011;1093;51.424;11.764;2023-01-09T09:40:20;1.93;;;1.10;;
2173;SDS011;1093;51.424;11.764;2023-01-09T09:43:12;1.43;;;1.33;;
2173;SDS011;1093;51.424;11.764;2023-01-09T09:46:23;1.10;;;1.00;;
2173;SDS011;1093;51.424;11.764;2023-01-09T09:48:58;1.73;;;1.13;;
2173;SDS011;1093;51.424;11.764;2023-01-09T09:51:36;1.30;;;1.20;;
2173;SDS011;1093;51.424;11.764;2023-01-09T09:54:21;1.63;;;1.23;;
2173;SDS011;1093;51.424;11.764;2023-01-09T09:56:55;1.10;;;1.00;;
2173;SDS011;1093;51.424;11.764;2023-01-09T09:59:24;1.60;;;1.40;;
2173;SDS011;1093;51.424;11.764;2023-01-09T10:01:55;2.93;;;1.53;;
2173;SDS011;1093;51.424;11.764;2023-01-09T10:04:26;1.40;;;1.13;;
2173;SDS011;1093;51.424;11.764;2023-01-09T10:06:58;0.93;;;0.83;;
2173;SDS011;1093;51.424;11.764;2023-01-09T10:09:32;1.50;;;1.03;;
2173;SDS011;1093;51.424;11.764;2023-01-09T10:12:10;2.70;;;1.30;;
2173;SDS011;1093;51.424;11.764;2023-01-09T10:14:51;1.47;;;1.00;;
2173;SDS011;1093;51.424;11.764;2023-01-09T10:17:22;2.40;;;1.13;;
2173;SDS011;1093;51.424;11.764;2023-01-09T10:23:03;0.97;;;0.87;;
2173;SDS011;1093;51.424;11.764;2023-01-09T10:25:42;1.40;;;0.93;;
2173;SDS011;1093;51.424;11.764;2023-01-09T10:28:19;1.53;;;1.10;;
2173;SDS011;1093;51.424;11.764;2023-01-09T10:30:57;2.13;;;1.53;;
2173;SDS011;1093;51.424;11.764;2023-01-09T10:33:32;4.97;;;1.00;;
2173;SDS011;1093;51.424;11.764;2023-01-09T10:36:24;1.20;;;1.10;;
2173;SDS011;1093;51.424;11.764;2023-01-09T10:39:03;5.13;;;1.70;;
2173;SDS011;1093;51.424;11.764;2023-01-09T10:41:36;1.10;;;1.00;;
2173;SDS011;1093;51.424;11.764;2023-01-09T10:44:06;1.10;;;1.00;;
2173;SDS011;1093;51.424;11.764;2023-01-09T10:46:42;2.30;;;1.57;;
2173;SDS011;1093;51.424;11.764;2023-01-09T10:49:13;2.30;;;1.33;;
2173;SDS011;1093;51.424;11.764;2023-01-09T10:51:43;1.17;;;1.07;;
2173;SDS011;1093;51.424;11.764;2023-01-09T10:54:14;2.20;;;1.30;;
2173;SDS011;1093;51.424;11.764;2023-01-09T10:56:43;3.07;;;1.40;;
2173;SDS011;1093;51.424;11.764;2023-01-09T10:59:16;5.70;;;1.30;;
2173;SDS011;1093;51.424;11.764;2023-01-09T11:01:42;2.20;;;0.80;;
2173;SDS011;1093;51.424;11.764;2023-01-09T11:04:15;2.60;;;1.77;;
2173;SDS011;1093;51.424;11.764;2023-01-09T11:06:46;2.20;;;1.10;;
2173;SDS011;1093;51.424;11.764;2023-01-09T11:09:17;1.27;;;1.17;;
2173;SDS011;1093;51.424;11.764;2023-01-09T11:11:44;3.33;;;1.20;;
2173;SDS011;1093;51.424;11.764;2023-01-09T11:14:14;3.00;;;1.50;;
2173;SDS011;1093;51.424;11.764;2023-01-09T11:16:52;2.60;;;1.30;;
2173;SDS011;1093;51.424;11.764;2023-01-09T11:19:19;5.30;;;1.90;;
2173;SDS011;1093;51.424;11.764;2023-01-09T11:21:46;1.77;;;1.30;;
2173;SDS011;1093;51.424;11.764;2023-01-09T11:24:24;1.90;;;1.23;;
2173;SDS011;1093;51.424;11.764;2023-01-09T11:27:18;3.07;;;1.00;;
2173;SDS011;1093;51.424;11.764;2023-01-09T11:30:08;1.90;;;1.80;;
2173;SDS011;1093;51.424;11.764;2023-01-09T11:32:44;3.07;;;1.90;;
2173;SDS011;1093;51.424;11.764;2023-01-09T11:35:17;1.63;;;0.90;;
2173;SDS011;1093;51.424;11.764;2023-01-09T11:37:55;2.23;;;1.40;;
2173;SDS011;1093;51.424;11.764;2023-01-09T11:40:28;4.13;;;1.20;;
2173;SDS011;1093;51.424;11.764;2023-01-09T11:43:09;2.80;;;1.20;;
2173;SDS011;1093;51.424;11.764;2023-01-09T11:45:41;0.80;;;0.80;;
2173;SDS011;1093;51.424;11.764;2023-01-09T11:48:17;3.33;;;1.63;;
2173;SDS011;1093;51.424;11.764;2023-01-09T11:50:53;0.90;;;0.70;;
2173;SDS011;1093;51.424;11.764;2023-01-09T11:53:22;2.17;;;1.50;;
2173;SDS011;1093;51.424;11.764;2023-01-09T11:55:54;2.17;;;1.27;;
2173;SDS011;1093;51.424;11.764;2023-01-09T11:58:26;2.07;;;1.30;;
2173;SDS011;1093;51.424;11.764;2023-01-09T12:00:56;4.20;;;1.40;;
2173;SDS011;1093;51.424;11.764;2023-01-09T12:03:36;2.50;;;1.30;;
2173;SDS011;1093;51.424;11.764;2023-01-09T12:06:12;6.10;;;1.10;;
2173;SDS011;1093;51.424;11.764;2023-01-09T12:08:51;1.13;;;1.03;;
2173;SDS011;1093;51.424;11.764;2023-01-09T12:11:23;6.93;;;2.20;;
2173;SDS011;1093;51.424;11.764;2023-01-09T12:14:17;3.27;;;0.90;;
2173;SDS011;1093;51.424;11.764;2023-01-09T12:16:56;1.00;;;0.90;;
2173;SDS011;1093;51.424;11.764;2023-01-09T12:19:45;3.43;;;1.50;;
2173;SDS011;1093;51.424;11.764;2023-01-09T12:22:27;5.53;;;2.70;;
2173;SDS011;1093;51.424;11.764;2023-01-09T12:25:02;3.00;;;2.27;;
2173;SDS011;1093;51.424;11.764;2023-01-09T12:27:43;1.33;;;1.23;;
2173;SDS011;1093;51.424;11.764;2023-01-09T12:30:23;2.67;;;1.10;;
2173;SDS011;1093;51.424;11.764;2023-01-09T12:33:03;1.80;;;1.00;;
2173;SDS011;1093;51.424;11.764;2023-01-09T12:35:39;1.10;;;1.00;;
2173;SDS011;1093;51.424;11.764;2023-01-09T12:38:18;0.90;;;0.70;;
2173;SDS011;1093;51.424;11.764;2023-01-09T12:41:08;1.53;;;1.07;;
2173;SDS011;1093;51.424;11.764;2023-01-09T12:43:49;0.70;;;0.60;;
2173;SDS011;1093;51.424;11.764;2023-01-09T12:46:22;0.90;;;0.73;;
2173;SDS011;1093;51.424;11.764;2023-01-09T12:48:54;1.20;;;1.03;;
2173;SDS011;1093;51.424;11.764;2023-01-09T12:51:36;1.77;;;1.43;;
2173;SDS011;1093;51.424;11.764;2023-01-09T12:54:09;1.47;;;0.90;;
2173;SDS011;1093;51.424;11.764;2023-01-09T12:56:42;1.33;;;1.10;;
2173;SDS011;1093;51.424;11.764;2023-01-09T12:59:19;0.87;;;0.80;;
2173;SDS011;1093;51.424;11.764;2023-01-09T13:01:54;2.23;;;1.03;;
2173;SDS011;1093;51.424;11.764;2023-01-09T13:04:27;1.50;;;0.93;;
2173;SDS011;1093;51.424;11.764;2023-01-09T13:07:00;0.90;;;0.90;;
2173;SDS011;1093;51.424;11.764;2023-01-09T13:09:31;1.30;;;1.13;;
2173;SDS011;1093;51.424;11.764;2023-01-09T13:12:06;2.50;;;1.10;;
2173;SDS011;1093;51.424;11.764;2023-01-09T13:14:46;3.23;;;1.03;;
2173;SDS011;1093;51.424;11.764;2023-01-09T13:17:18;0.80;;;0.80;;
2173;SDS011;1093;51.424;11.764;2023-01-09T13:19:49;2.30;;;1.23;;
2173;SDS011;1093;51.424;11.764;2023-01-09T13:22:17;1.10;;;0.77;;
2173;SDS011;1093;51.424;11.764;2023-01-09T13:24:52;2.17;;;0.90;;
2173;SDS011;1093;51.424;11.764;2023-01-09T13:27:31;4.57;;;2.90;;
2173;SDS011;1093;51.424;11.764;2023-01-09T13:30:07;1.67;;;1.40;;
2173;SDS011;1093;51.424;11.764;2023-01-09T13:32:46;1.40;;;1.30;;
2173;SDS011;1093;51.424;11.764;2023-01-09T13:35:21;1.00;;;0.90;;
2173;SDS011;1093;51.424;11.764;2023-01-09T13:37:49;1.40;;;1.30;;
2173;SDS011;1093;51.424;11.764;2023-01-09T13:40:25;1.40;;;1.03;;
2173;SDS011;1093;51.424;11.764;2023-01-09T13:42:55;0.83;;;0.83;;
2173;SDS011;1093;51.424;11.764;2023-01-09T13:45:25;1.10;;;0.97;;
2173;SDS011;1093;51.424;11.764;2023-01-09T13:54:02;1.33;;;1.20;;
2173;SDS011;1093;51.424;11.764;2023-01-09T13:56:28;3.20;;;1.53;;
2173;SDS011;1093;51.424;11.764;2023-01-09T13:58:56;1.30;;;1.10;;
2173;SDS011;1093;51.424;11.764;2023-01-09T14:01:42;1.37;;;1.13;;
2173;SDS011;1093;51.424;11.764;2023-01-09T14:07:22;1.23;;;1.13;;
2173;SDS011;1093;51.424;11.764;2023-01-09T14:09:52;3.90;;;1.43;;
2173;SDS011;1093;51.424;11.764;2023-01-09T14:12:23;1.50;;;1.40;;
2173;SDS011;1093;51.424;11.764;2023-01-09T14:14:51;1.30;;;1.20;;
2173;SDS011;1093;51.424;11.764;2023-01-09T14:17:24;3.83;;;1.63;;
2173;SDS011;1093;51.424;11.764;2023-01-09T14:19:57;2.13;;;1.07;;
2173;SDS011;1093;51.424;11.764;2023-01-09T14:22:26;1.90;;;1.60;;
2173;SDS011;1093;51.424;11.764;2023-01-09T14:24:58;2.00;;;1.50;;
2173;SDS011;1093;51.424;11.764;2023-01-09T14:27:48;2.60;;;1.17;;
2173;SDS011;1093;51.424;11.764;2023-01-09T14:30:34;1.20;;;1.10;;
2173;SDS011;1093;51.424;11.764;2023-01-09T14:33:06;1.27;;;1.00;;
2173;SDS011;1093;51.424;11.764;2023-01-09T14:35:51;1.20;;;1.10;;
2173;SDS011;1093;51.424;11.764;2023-01-09T14:38:28;2.73;;;1.40;;
2173;SDS011;1093;51.424;11.764;2023-01-09T14:41:00;1.40;;;1.30;;
2173;SDS011;1093;51.424;11.764;2023-01-09T14:43:42;2.00;;;1.53;;
2173;SDS011;1093;51.424;11.764;2023-01-09T14:46:14;1.87;;;1.40;;
2173;SDS011;1093;51.424;11.764;2023-01-09T14:48:52;2.93;;;2.27;;
2173;SDS011;1093;51.424;11.764;2023-01-09T14:51:25;2.37;;;1.20;;
2173;SDS011;1093;51.424;11.764;2023-01-09T14:53:56;1.20;;;1.10;;
2173;SDS011;1093;51.424;11.764;2023-01-09T14:56:26;2.60;;;1.50;;
2173;SDS011;1093;51.424;11.764;2023-01-09T14:59:04;2.90;;;1.13;;
2173;SDS011;1093;51.424;11.764;2023-01-09T15:01:35;2.07;;;1.20;;
2173;SDS011;1093;51.424;11.764;2023-01-09T15:04:16;5.30;;;1.60;;
2173;SDS011;1093;51.424;11.764;2023-01-09T15:06:47;2.33;;;1.80;;
2173;SDS011;1093;51.424;11.764;2023-01-09T15:09:16;1.30;;;1.20;;
2173;SDS011;1093;51.424;11.764;2023-01-09T15:11:47;3.00;;;1.70;;
2173;SDS011;1093;51.424;11.764;2023-01-09T15:14:16;1.83;;;1.57;;
2173;SDS011;1093;51.424;11.764;2023-01-09T15:16:51;2.20;;;1.50;;
2173;SDS011;1093;51.424;11.764;2023-01-09T15:19:19;4.83;;;1.70;;
2173;SDS011;1093;51.424;11.764;2023-01-09T15:21:55;2.50;;;2.30;;
2173;SDS011;1093;51.424;11.764;2023-01-09T15:24:24;2.60;;;2.10;;
2173;SDS011;1093;51.424;11.764;2023-01-09T15:26:54;3.37;;;2.27;;
2173;SDS011;1093;51.424;11.764;2023-01-09T15:29:23;1.70;;;1.60;;
2173;SDS011;1093;51.424;11.764;2023-01-09T15:31:52;1.47;;;1.37;;